Time;durP1;ratioP1;P1;durP2;ratioP2;P2;SDS_P1;SDS_P2;PMS_P1;PMS_P2;Temp;Humidity;BMP_temperature;BMP_pressure;BME280_temperature;BME280_humidity;BME280_pressure;Samples;Min_cycle;Max_cycle;Signal;HPM_P1;HPM_P2
2022/01/08 00:00:39;;;;;;;1.37;0.80;;;27.20;69.10;;;;;;4136565;28;20052;-45
2022/01/08 00:02:43;;;;;;;1.50;0.88;;;27.20;69.10;;;;;;4136212;28;20861;-48
2022/01/08 00:04:45;;;;;;;0.95;0.63;;;27.30;69.20;;;;;;4145958;28;20040;-48
2022/01/08 00:06:48;;;;;;;1.02;0.68;;;27.30;69.10;;;;;;4138191;28;21425;-47
2022/01/08 00:08:50;;;;;;;1.43;0.60;;;27.30;69.10;;;;;;4136761;28;20476;-48
2022/01/08 00:10:54;;;;;;;1.10;0.75;;;27.30;68.90;;;;;;4142710;28;20290;-47
2022/01/08 00:13:01;;;;;;;1.90;0.98;;;27.30;68.60;;;;;;4145863;28;20043;-49
2022/01/08 00:15:05;;;;;;;1.85;0.70;;;27.30;68.70;;;;;;4140393;28;22476;-46
2022/01/08 00:17:08;;;;;;;2.05;0.93;;;27.30;68.90;;;;;;4135391;28;20379;-48
2022/01/08 00:19:10;;;;;;;0.98;0.68;;;27.40;68.90;;;;;;4138255;28;20044;-46
2022/01/08 00:21:13;;;;;;;1.92;0.98;;;27.40;68.90;;;;;;4145786;28;20315;-49
2022/01/08 00:23:14;;;;;;;;;;;27.40;69.10;;;;;;4136156;28;20044;-48
2022/01/08 00:25:17;;;;;;;0.98;0.70;;;27.40;69.00;;;;;;4137038;28;19938;-50
2022/01/08 00:27:20;;;;;;;1.15;0.80;;;27.40;69.00;;;;;;4147554;28;20036;-46
2022/01/08 00:29:22;;;;;;;0.70;0.70;;;27.50;69.20;;;;;;4141578;28;21362;-48
2022/01/08 00:31:25;;;;;;;0.95;0.80;;;27.50;69.00;;;;;;4135175;28;20037;-48
2022/01/08 00:33:27;;;;;;;1.73;0.80;;;27.50;69.20;;;;;;4140495;28;20048;-50
2022/01/08 00:35:31;;;;;;;0.77;0.55;;;27.50;69.10;;;;;;4144228;28;20052;-47
2022/01/08 00:37:34;;;;;;;1.67;0.65;;;27.50;69.20;;;;;;4136776;28;22183;-48
2022/01/08 00:39:37;;;;;;;1.95;0.70;;;27.60;69.20;;;;;;4135690;28;20127;-49
2022/01/08 00:41:39;;;;;;;1.20;0.80;;;27.60;69.20;;;;;;4143983;28;20067;-48
2022/01/08 00:43:41;;;;;;;2.63;0.70;;;27.60;69.10;;;;;;4141864;28;20239;-51
2022/01/08 00:45:43;;;;;;;1.25;0.57;;;27.70;69.20;;;;;;4136668;28;20313;-52
2022/01/08 00:47:45;;;;;;;0.95;0.60;;;27.70;69.10;;;;;;4138649;28;20032;-51
2022/01/08 00:49:47;;;;;;;0.40;0.40;;;27.70;69.10;;;;;;4145434;28;20041;-52
2022/01/08 00:51:50;;;;;;;1.15;0.60;;;27.80;69.20;;;;;;4134238;28;20461;-52
2022/01/08 00:53:52;;;;;;;1.95;0.90;;;27.80;69.20;;;;;;4132317;28;20032;-50
2022/01/08 00:55:54;;;;;;;0.87;0.70;;;27.80;69.20;;;;;;4146412;28;20758;-48
2022/01/08 00:57:56;;;;;;;0.65;0.50;;;27.80;69.00;;;;;;4134723;28;22447;-47
2022/01/08 00:59:58;;;;;;;0.87;0.63;;;27.90;69.00;;;;;;4134993;28;20541;-47
2022/01/08 01:02:13;;;;;;;1.10;0.80;;;27.90;68.40;;;;;;4152474;27;20449;-50
2022/01/08 01:04:15;;;;;;;1.37;0.70;;;27.90;69.00;;;;;;4163981;28;20039;-54
2022/01/08 01:06:17;;;;;;;2.10;1.20;;;28.00;69.00;;;;;;4173258;28;20896;-53
2022/01/08 01:08:19;;;;;;;2.33;0.90;;;28.00;69.00;;;;;;4163051;28;20044;-51
2022/01/08 01:10:22;;;;;;;3.47;0.93;;;28.00;69.10;;;;;;4165368;28;20028;-51
2022/01/08 01:12:24;;;;;;;2.90;0.98;;;28.00;69.10;;;;;;4175855;28;20106;-51
2022/01/08 01:14:27;;;;;;;2.13;0.88;;;28.00;69.20;;;;;;4163898;28;20032;-54
2022/01/08 01:16:29;;;;;;;;;;;28.10;69.20;;;;;;4164657;28;20044;-52
2022/01/08 01:18:31;;;;;;;1.90;1.00;;;28.10;69.10;;;;;;4171493;28;19962;-49
2022/01/08 01:20:33;;;;;;;2.53;1.20;;;28.10;68.50;;;;;;4168342;28;20059;-49
2022/01/08 01:22:45;;;;;;;1.63;0.83;;;28.10;68.20;;;;;;4163144;28;20063;-50
2022/01/08 01:24:49;;;;;;;2.72;0.90;;;28.10;67.80;;;;;;4165727;28;20065;-50
2022/01/08 01:41:32;;;;;;;4.10;2.03;;;28.10;63.40;;;;;;4149993;28;20055;-43
2022/01/08 01:48:20;;;;;;;2.03;1.45;;;27.60;58.50;;;;;;4147732;28;20061;-44
2022/01/08 01:50:22;;;;;;;1.88;1.20;;;27.40;57.70;;;;;;4159454;28;20072;-46
2022/01/08 01:52:25;;;;;;;2.93;1.70;;;27.30;57.30;;;;;;4149241;28;21613;-46
2022/01/08 01:54:31;;;;;;;3.58;1.98;;;27.20;57.00;;;;;;4150303;28;20036;-43
2022/01/08 01:56:33;;;;;;;2.83;1.83;;;27.10;57.30;;;;;;4150501;28;20093;-44
2022/01/08 01:58:35;;;;;;;2.85;1.70;;;27.00;57.10;;;;;;4159785;28;20032;-50
2022/01/08 02:00:38;;;;;;;3.50;2.17;;;26.90;57.00;;;;;;4148934;28;20070;-44
2022/01/08 02:02:40;;;;;;;2.72;1.77;;;26.80;57.00;;;;;;4148696;28;20278;-46
2022/01/08 02:04:42;;;;;;;3.25;1.85;;;26.70;57.10;;;;;;4158401;28;20032;-45
2022/01/08 02:06:44;;;;;;;2.17;1.52;;;26.60;57.50;;;;;;4151002;28;20040;-43
2022/01/08 02:08:47;;;;;;;3.08;1.60;;;26.50;57.30;;;;;;4148564;28;20045;-47
2022/01/08 02:10:49;;;;;;;3.80;1.67;;;26.40;57.10;;;;;;4153819;28;20051;-45
2022/01/08 02:12:51;;;;;;;2.63;1.63;;;26.30;56.90;;;;;;4152457;28;20037;-43
2022/01/08 02:14:53;;;;;;;2.50;1.60;;;26.20;57.00;;;;;;4137060;28;20036;-43
2022/01/08 02:16:56;;;;;;;1.48;1.17;;;26.10;56.70;;;;;;4139286;28;20391;-47
2022/01/08 02:18:58;;;;;;;2.40;1.35;;;26.10;56.50;;;;;;4147443;28;20046;-44
2022/01/08 02:21:02;;;;;;;2.25;1.60;;;26.00;56.40;;;;;;4140413;28;20056;-46
2022/01/08 02:23:04;;;;;;;1.65;1.30;;;26.00;56.50;;;;;;4138685;28;20088;-46
2022/01/08 02:25:07;;;;;;;1.98;1.30;;;25.90;56.70;;;;;;4144430;28;20036;-44
2022/01/08 02:27:09;;;;;;;1.63;1.10;;;25.80;56.90;;;;;;4145943;28;20033;-44
2022/01/08 02:29:13;;;;;;;1.90;1.30;;;25.80;57.40;;;;;;4139411;28;20681;-43
2022/01/08 02:31:25;;;;;;;1.70;1.20;;;25.70;57.30;;;;;;4135987;28;21866;-43
2022/01/08 02:33:28;;;;;;;1.67;1.40;;;25.70;57.50;;;;;;4138907;28;20667;-48
2022/01/08 02:35:30;;;;;;;2.35;1.30;;;25.60;57.70;;;;;;4148003;28;20075;-44
2022/01/08 02:37:34;;;;;;;2.40;1.40;;;25.60;57.80;;;;;;4140378;28;20201;-50
2022/01/08 02:39:42;;;;;;;1.50;1.25;;;25.60;57.50;;;;;;4139984;28;20052;-44
2022/01/08 02:41:44;;;;;;;1.55;1.13;;;25.50;57.30;;;;;;4140135;28;20083;-48
2022/01/08 02:43:52;;;;;;;1.20;1.00;;;25.50;57.20;;;;;;4144426;28;20055;-47
2022/01/08 02:45:55;;;;;;;1.60;1.20;;;25.40;57.20;;;;;;4148733;28;20047;-47
2022/01/08 02:47:58;;;;;;;1.77;1.33;;;25.40;57.10;;;;;;4139965;28;20071;-43
2022/01/08 02:50:00;;;;;;;1.73;1.27;;;25.30;57.10;;;;;;4134488;28;20507;-45
2022/01/08 02:52:04;;;;;;;1.90;1.30;;;25.30;57.20;;;;;;4143619;28;20442;-42
2022/01/08 02:54:10;;;;;;;1.20;1.10;;;25.30;57.50;;;;;;4141161;28;22017;-42
2022/01/08 02:56:12;;;;;;;1.33;1.20;;;25.20;57.60;;;;;;4136276;28;20032;-43
2022/01/08 02:58:14;;;;;;;2.05;1.40;;;25.20;57.90;;;;;;4135677;28;20215;-43
2022/01/08 03:00:18;;;;;;;1.70;1.23;;;25.10;58.00;;;;;;4135152;28;20044;-45
2022/01/08 03:02:21;;;;;;;3.78;1.35;;;25.10;58.00;;;;;;4137637;28;20059;-46
2022/01/08 03:04:23;;;;;;;3.30;1.47;;;25.10;58.40;;;;;;4137780;28;21101;-43
2022/01/08 03:06:26;;;;;;;3.93;1.40;;;25.00;58.40;;;;;;4136843;28;21065;-44
2022/01/08 03:08:28;;;;;;;1.23;1.13;;;25.00;58.70;;;;;;4147811;28;20971;-44
2022/01/08 03:10:30;;;;;;;2.30;1.25;;;24.90;58.90;;;;;;4138142;28;20756;-43
2022/01/08 03:12:32;;;;;;;4.35;1.40;;;24.80;59.10;;;;;;4140541;28;20994;-43
2022/01/08 03:14:35;;;;;;;5.40;1.60;;;24.80;59.20;;;;;;4149361;28;20041;-44
2022/01/08 03:16:38;;;;;;;2.47;1.58;;;24.80;61.20;;;;;;4142574;28;20207;-42
2022/01/08 03:18:40;;;;;;;;;;;24.80;63.60;;;;;;4136568;28;20401;-42
2022/01/08 03:20:48;;;;;;;3.55;1.67;;;25.00;64.60;;;;;;4138867;28;19997;-44
2022/01/08 03:23:00;;;;;;;2.28;1.30;;;25.10;65.50;;;;;;4145849;28;20506;-43
2022/01/08 03:25:03;;;;;;;3.08;1.85;;;25.20;66.10;;;;;;4144520;28;20033;-46
2022/01/08 03:27:06;;;;;;;2.03;1.65;;;25.30;66.20;;;;;;4140678;28;20184;-43
2022/01/08 03:29:08;;;;;;;3.75;1.77;;;25.40;66.80;;;;;;4136704;28;20033;-42
2022/01/08 03:31:12;;;;;;;2.40;1.50;;;25.50;66.90;;;;;;4138990;28;20037;-42
2022/01/08 03:33:14;;;;;;;3.30;1.70;;;25.60;67.30;;;;;;4141691;28;20910;-45
2022/01/08 03:35:16;;;;;;;2.95;1.70;;;25.70;67.20;;;;;;4134850;28;20230;-44
2022/01/08 03:37:18;;;;;;;2.55;1.70;;;25.80;67.40;;;;;;4133544;28;20044;-43
2022/01/08 03:39:22;;;;;;;2.20;1.50;;;25.80;67.60;;;;;;4142808;28;20521;-43
2022/01/08 03:41:24;;;;;;;1.95;1.58;;;25.90;67.70;;;;;;4136289;28;21494;-43
2022/01/08 03:43:26;;;;;;;2.60;1.60;;;26.00;67.90;;;;;;4132881;28;20973;-44
2022/01/08 03:45:28;;;;;;;2.53;1.67;;;26.00;67.80;;;;;;4136830;28;20056;-42
2022/01/08 03:47:53;;;;;;;3.40;1.77;;;26.10;67.60;;;;;;4142195;28;20024;-45
2022/01/08 03:49:53;;;;;;;2.28;1.67;;;26.20;67.50;;;;;;4135414;28;20082;-48
2022/01/08 03:51:56;;;;;;;5.00;2.00;;;26.30;67.50;;;;;;4145310;28;20044;-45
2022/01/08 03:53:59;;;;;;;2.17;1.65;;;26.30;67.50;;;;;;4130664;28;21258;-43
2022/01/08 03:56:01;;;;;;;2.43;1.77;;;26.40;67.40;;;;;;4134748;28;20048;-44
2022/01/08 03:58:03;;;;;;;2.85;2.03;;;26.40;67.40;;;;;;4144437;28;20374;-44
2022/01/08 04:02:11;;;;;;;2.47;1.60;;;26.50;66.70;;;;;;4149011;27;20967;-48
2022/01/08 04:04:14;;;;;;;2.23;1.60;;;26.60;67.10;;;;;;4151224;28;20091;-44
2022/01/08 04:06:16;;;;;;;1.70;1.40;;;26.70;67.20;;;;;;4161570;28;20555;-43
2022/01/08 04:08:19;;;;;;;2.67;1.80;;;26.80;67.10;;;;;;4153635;28;20134;-45
2022/01/08 04:10:21;;;;;;;2.30;1.50;;;26.80;67.70;;;;;;4150059;28;20125;-44
2022/01/08 04:12:40;;;;;;;2.80;1.60;;;26.90;66.90;;;;;;4156664;28;21260;-44
2022/01/08 04:14:53;;;;;;;2.40;1.67;;;26.90;66.80;;;;;;4148974;28;20036;-42
2022/01/08 04:16:55;;;;;;;2.53;1.73;;;27.00;66.70;;;;;;4151277;28;20036;-43
2022/01/08 04:18:59;;;;;;;4.63;2.05;;;27.10;66.60;;;;;;4161799;28;20399;-42
2022/01/08 04:23:06;;;;;;;2.80;1.98;;;27.20;66.50;;;;;;4155603;28;20830;-42
2022/01/08 04:25:08;;;;;;;2.30;1.70;;;27.30;66.70;;;;;;4154918;28;20672;-43
2022/01/08 04:27:11;;;;;;;3.15;1.63;;;27.30;66.30;;;;;;4165052;28;20502;-44
2022/01/08 04:29:13;;;;;;;3.67;1.80;;;27.40;66.20;;;;;;4157848;28;20036;-41
2022/01/08 04:31:15;;;;;;;3.73;1.63;;;27.50;66.20;;;;;;4157276;28;20114;-42
2022/01/08 04:33:18;;;;;;;2.38;1.90;;;27.50;66.10;;;;;;4153057;28;22160;-42
2022/01/08 04:35:20;;;;;;;2.63;1.50;;;27.50;66.00;;;;;;4163786;28;20075;-43
2022/01/08 04:37:22;;;;;;;2.27;1.70;;;27.60;65.90;;;;;;4150903;28;20051;-44
2022/01/08 04:39:24;;;;;;;2.75;1.70;;;27.70;65.80;;;;;;4155032;28;20114;-43
2022/01/08 04:41:26;;;;;;;3.63;1.83;;;27.80;65.70;;;;;;4162141;28;20044;-46
2022/01/08 04:43:29;;;;;;;1.90;1.70;;;27.80;65.60;;;;;;4154869;28;20662;-45
2022/01/08 04:45:31;;;;;;;2.45;1.92;;;27.90;65.50;;;;;;4153206;28;20089;-43
2022/01/08 04:47:33;;;;;;;3.00;1.90;;;28.00;65.50;;;;;;4160405;28;20543;-43
2022/01/08 04:49:35;;;;;;;1.80;1.57;;;28.00;65.20;;;;;;4156880;28;20044;-43
2022/01/08 04:51:38;;;;;;;2.80;1.77;;;28.10;65.10;;;;;;4147893;28;20130;-44
2022/01/08 04:53:40;;;;;;;2.33;1.48;;;28.20;65.00;;;;;;4148394;28;20114;-46
2022/01/08 04:55:42;;;;;;;2.55;1.35;;;28.20;62.50;;;;;;4158924;28;20468;-42
2022/01/08 04:57:44;;;;;;;2.60;1.70;;;28.10;60.00;;;;;;4149088;28;20045;-47
2022/01/08 04:59:47;;;;;;;1.77;1.20;;;28.00;58.70;;;;;;4150073;28;20557;-42
2022/01/08 05:01:49;;;;;;;2.58;1.30;;;27.80;57.60;;;;;;4144555;28;20460;-43
2022/01/08 05:03:52;;;;;;;2.35;1.20;;;27.70;56.90;;;;;;4140831;28;20126;-42
2022/01/08 05:05:54;;;;;;;2.20;1.47;;;27.50;56.10;;;;;;4149641;28;20068;-45
2022/01/08 05:07:56;;;;;;;2.38;1.38;;;27.40;56.40;;;;;;4154112;28;20122;-44
2022/01/08 05:09:58;;;;;;;2.45;1.33;;;27.30;55.60;;;;;;4160290;28;20698;-43
2022/01/08 05:12:01;;;;;;;1.55;1.33;;;27.20;55.40;;;;;;4147645;28;20033;-44
2022/01/08 05:14:04;;;;;;;4.20;1.70;;;27.10;55.50;;;;;;4142049;28;20075;-46
2022/01/08 05:16:06;;;;;;;;;;;27.00;55.30;;;;;;4149190;28;20028;-44
2022/01/08 05:18:10;;;;;;;6.60;1.65;;;26.90;55.40;;;;;;4142630;28;20001;-46
2022/01/08 05:20:14;;;;;;;1.75;1.48;;;26.80;55.60;;;;;;4138947;28;20036;-47
2022/01/08 05:22:30;;;;;;;6.75;1.73;;;26.70;55.30;;;;;;4141233;28;20047;-46
2022/01/08 05:24:34;;;;;;;14.68;2.70;;;26.60;56.00;;;;;;4139324;28;20132;-43
2022/01/08 05:26:36;;;;;;;8.05;1.67;;;26.50;56.20;;;;;;4148989;28;20078;-42
2022/01/08 05:28:38;;;;;;;3.70;1.73;;;26.40;55.80;;;;;;4143597;28;20040;-44
2022/01/08 05:30:40;;;;;;;2.75;1.27;;;26.40;55.60;;;;;;4142889;28;20044;-45
2022/01/08 05:32:43;;;;;;;3.25;1.50;;;26.30;55.50;;;;;;4143425;28;20037;-44
2022/01/08 05:34:47;;;;;;;2.55;1.40;;;26.20;55.30;;;;;;4149937;28;20124;-46
2022/01/08 05:36:49;;;;;;;2.47;1.50;;;26.20;55.60;;;;;;4143001;28;20091;-43
2022/01/08 05:38:51;;;;;;;1.50;1.13;;;26.10;55.40;;;;;;4140365;28;20111;-44
2022/01/08 05:40:54;;;;;;;2.55;1.50;;;26.10;55.50;;;;;;4152023;28;20070;-44
2022/01/08 05:42:56;;;;;;;2.40;1.30;;;26.00;55.20;;;;;;4143223;28;22207;-46
2022/01/08 05:44:58;;;;;;;2.97;1.67;;;26.00;55.30;;;;;;4139828;28;20047;-46
2022/01/08 05:47:01;;;;;;;2.60;1.65;;;26.00;55.60;;;;;;4137193;28;20632;-44
2022/01/08 05:49:04;;;;;;;2.33;1.60;;;25.90;55.80;;;;;;4148890;28;20044;-45
2022/01/08 05:51:06;;;;;;;2.28;1.52;;;25.80;55.90;;;;;;4140881;28;20059;-43
2022/01/08 05:53:08;;;;;;;1.80;1.35;;;25.80;56.00;;;;;;4141429;28;20504;-43
2022/01/08 05:55:11;;;;;;;2.53;1.55;;;25.70;55.90;;;;;;4150604;28;20036;-44
2022/01/08 05:57:13;;;;;;;2.65;1.33;;;25.70;56.00;;;;;;4146786;28;20037;-45
2022/01/08 05:59:15;;;;;;;1.45;1.20;;;25.70;55.90;;;;;;4139951;28;20052;-46
2022/01/08 06:01:17;;;;;;;2.17;1.52;;;25.60;55.70;;;;;;4148915;28;20083;-48
2022/01/08 06:03:19;;;;;;;1.80;1.40;;;25.60;55.70;;;;;;4145649;28;20041;-43
2022/01/08 06:05:21;;;;;;;1.40;1.30;;;25.60;55.70;;;;;;4141997;28;20598;-43
2022/01/08 06:07:23;;;;;;;1.95;1.50;;;25.50;55.70;;;;;;4142714;28;20048;-43
2022/01/08 06:09:26;;;;;;;1.48;1.38;;;25.50;55.60;;;;;;4153076;28;20135;-46
2022/01/08 06:11:28;;;;;;;1.30;1.20;;;25.40;55.40;;;;;;4142306;28;20048;-43
2022/01/08 06:13:30;;;;;;;2.20;1.60;;;25.40;55.80;;;;;;4142753;28;20060;-45
2022/01/08 06:15:32;;;;;;;2.00;1.30;;;25.30;55.70;;;;;;4152280;28;20041;-43
2022/01/08 06:17:34;;;;;;;1.65;1.30;;;25.20;55.70;;;;;;4145538;28;20879;-43
2022/01/08 06:19:36;;;;;;;2.13;1.60;;;25.10;55.50;;;;;;4141492;28;20798;-44
2022/01/08 06:21:39;;;;;;;2.05;1.45;;;25.10;55.40;;;;;;4147314;28;20059;-48
2022/01/08 06:23:41;;;;;;;2.53;1.52;;;25.10;55.40;;;;;;4148734;28;21895;-45
2022/01/08 06:25:43;;;;;;;1.58;1.40;;;25.00;55.50;;;;;;4140697;28;20845;-43
2022/01/08 06:27:45;;;;;;;1.95;1.60;;;24.90;55.60;;;;;;4143817;28;20060;-48
2022/01/08 06:29:47;;;;;;;2.00;1.60;;;24.90;55.60;;;;;;4149225;28;20146;-44
2022/01/08 06:31:49;;;;;;;2.58;1.67;;;24.80;55.60;;;;;;4142636;28;21952;-46
2022/01/08 06:33:53;;;;;;;2.55;1.60;;;24.80;55.60;;;;;;4141299;28;20048;-43
2022/01/08 06:35:54;;;;;;;;;;;24.70;55.70;;;;;;4152150;28;20548;-44
2022/01/08 06:37:56;;;;;;;1.60;1.30;;;24.70;55.80;;;;;;4144136;28;19959;-44
2022/01/08 06:39:59;;;;;;;2.40;1.60;;;24.60;55.60;;;;;;4141444;28;20036;-44
2022/01/08 06:42:01;;;;;;;2.38;1.83;;;24.60;55.60;;;;;;4143109;28;20377;-44
2022/01/08 06:44:03;;;;;;;2.33;1.80;;;24.60;56.00;;;;;;4153518;28;20032;-44
2022/01/08 06:46:06;;;;;;;1.95;1.67;;;24.50;55.70;;;;;;4142683;28;20293;-43
2022/01/08 06:48:08;;;;;;;2.45;2.00;;;24.40;55.80;;;;;;4142283;28;20032;-47
2022/01/08 06:50:10;;;;;;;2.38;1.73;;;24.40;55.80;;;;;;4151431;28;20041;-44
2022/01/08 06:52:12;;;;;;;2.00;1.55;;;24.30;55.70;;;;;;4144163;28;20048;-43
2022/01/08 06:54:14;;;;;;;2.28;1.48;;;;;;;;;;4142098;28;21209;-47
2022/01/08 06:56:18;;;;;;;2.17;1.70;;;24.30;56.00;;;;;;4143705;28;20245;-51
2022/01/08 06:58:20;;;;;;;2.85;1.73;;;24.20;56.00;;;;;;4151125;28;20477;-46
2022/01/08 07:02:12;;;;;;;2.85;1.67;;;24.10;55.30;;;;;;4099468;27;20453;-48
2022/01/08 07:04:14;;;;;;;4.45;1.70;;;24.00;55.70;;;;;;4088385;28;20041;-44
2022/01/08 07:06:16;;;;;;;2.42;1.73;;;24.00;55.80;;;;;;4092871;28;20038;-44
2022/01/08 07:08:19;;;;;;;2.10;1.58;;;24.00;55.60;;;;;;4099746;28;20062;-48
2022/01/08 07:10:21;;;;;;;2.42;1.73;;;23.90;55.60;;;;;;4099144;28;20038;-47
2022/01/08 07:12:23;;;;;;;2.33;1.80;;;23.80;55.50;;;;;;4093058;28;20049;-44
2022/01/08 07:14:26;;;;;;;2.45;1.73;;;23.80;55.70;;;;;;4103392;28;20053;-47
2022/01/08 07:16:28;;;;;;;3.42;1.80;;;23.80;55.80;;;;;;4103777;28;20039;-43
2022/01/08 07:18:30;;;;;;;3.13;1.70;;;23.80;56.00;;;;;;4094979;28;20038;-43
2022/01/08 07:20:32;;;;;;;2.28;1.48;;;23.80;56.20;;;;;;4094603;28;20042;-47
2022/01/08 07:22:35;;;;;;;3.10;1.65;;;23.70;56.40;;;;;;4103634;28;20042;-42
2022/01/08 07:24:37;;;;;;;3.70;1.65;;;23.70;56.50;;;;;;4090955;28;20110;-49
2022/01/08 07:26:40;;;;;;;4.70;2.10;;;23.70;56.80;;;;;;4090484;28;20042;-44
2022/01/08 07:28:42;;;;;;;5.93;1.83;;;23.60;57.10;;;;;;4096121;28;20030;-43
2022/01/08 07:30:45;;;;;;;3.20;1.60;;;23.60;57.20;;;;;;4093591;28;20046;-46
2022/01/08 07:32:52;;;;;;;2.20;1.65;;;23.50;57.20;;;;;;4090817;28;20756;-45
2022/01/08 07:34:55;;;;;;;2.65;1.75;;;23.50;57.50;;;;;;4089246;28;20033;-45
2022/01/08 07:36:57;;;;;;;2.60;1.73;;;23.50;57.50;;;;;;4096998;28;20065;-45
2022/01/08 07:38:59;;;;;;;1.97;1.67;;;23.50;57.60;;;;;;4093078;28;22100;-44
2022/01/08 07:41:01;;;;;;;2.53;2.00;;;23.40;57.60;;;;;;4088849;28;20884;-48
2022/01/08 07:43:04;;;;;;;7.45;2.47;;;23.40;57.60;;;;;;4089704;28;20513;-51
2022/01/08 07:45:08;;;;;;;3.45;3.10;;;23.40;58.00;;;;;;4101570;28;20038;-46
2022/01/08 07:47:11;;;;;;;5.03;3.25;;;23.40;59.70;;;;;;4089063;28;21994;-51
2022/01/08 07:49:13;;;;;;;4.60;4.15;;;23.50;61.80;;;;;;4091221;28;20038;-48
2022/01/08 07:51:15;;;;;;;4.50;4.10;;;23.60;61.60;;;;;;4095837;28;20037;-51
2022/01/08 07:53:17;;;;;;;4.50;4.10;;;23.60;60.10;;;;;;4093767;28;20048;-46
2022/01/08 07:55:19;;;;;;;4.15;3.75;;;23.70;59.30;;;;;;4089145;28;20032;-46
2022/01/08 07:57:21;;;;;;;3.75;3.45;;;23.70;58.60;;;;;;4093090;28;20048;-47
2022/01/08 07:59:23;;;;;;;3.80;3.40;;;23.80;58.10;;;;;;4097722;28;20038;-46
2022/01/08 08:01:25;;;;;;;2.97;2.67;;;23.80;57.70;;;;;;4086873;28;20054;-46
2022/01/08 08:03:27;;;;;;;3.00;2.70;;;23.80;57.20;;;;;;4087269;28;20042;-47
2022/01/08 08:05:32;;;;;;;3.10;2.67;;;23.80;57.00;;;;;;4096353;28;20056;-49
2022/01/08 08:07:37;;;;;;;4.25;3.15;;;23.80;56.70;;;;;;4093358;28;20045;-46
2022/01/08 08:09:39;;;;;;;4.60;3.50;;;23.90;56.60;;;;;;4087569;28;20973;-53
2022/01/08 08:11:42;;;;;;;5.65;4.18;;;23.90;56.30;;;;;;4085122;28;20137;-49
2022/01/08 08:13:44;;;;;;;5.18;3.90;;;23.90;56.20;;;;;;4083512;28;20062;-48
2022/01/08 08:15:48;;;;;;;4.85;3.78;;;23.90;56.00;;;;;;4076784;28;20136;-46
2022/01/08 08:17:50;;;;;;;6.13;4.32;;;23.90;55.90;;;;;;4076182;28;20038;-49
2022/01/08 08:19:53;;;;;;;6.78;4.28;;;23.90;55.90;;;;;;4083254;28;20069;-47
2022/01/08 08:21:55;;;;;;;6.97;4.45;;;23.90;55.70;;;;;;4081198;28;20075;-48
2022/01/08 08:23:57;;;;;;;6.93;4.53;;;23.90;55.60;;;;;;4076149;28;20042;-46
2022/01/08 08:25:59;;;;;;;7.97;4.88;;;23.90;55.40;;;;;;4077019;28;20053;-44
2022/01/08 08:28:03;;;;;;;7.57;4.45;;;23.90;56.40;;;;;;4087268;28;20157;-48
2022/01/08 08:30:06;;;;;;;7.75;4.47;;;24.00;57.10;;;;;;4077363;28;20050;-45
2022/01/08 08:32:08;;;;;;;7.25;3.97;;;24.00;57.90;;;;;;4074342;28;20057;-43
2022/01/08 08:34:10;;;;;;;7.38;4.28;;;24.10;58.30;;;;;;4082730;28;20129;-45
2022/01/08 08:36:13;;;;;;;8.07;4.55;;;24.20;59.10;;;;;;4077192;28;20053;-47
2022/01/08 08:38:15;;;;;;;8.73;4.43;;;24.20;59.40;;;;;;4070225;28;20080;-46
2022/01/08 08:40:17;;;;;;;8.60;4.18;;;24.30;59.70;;;;;;4075975;28;20172;-47
2022/01/08 08:42:19;;;;;;;5.85;3.72;;;24.40;60.40;;;;;;4082451;28;20605;-50
2022/01/08 08:44:21;;;;;;;8.20;4.22;;;24.40;60.40;;;;;;4074140;28;20095;-46
2022/01/08 08:46:24;;;;;;;8.13;4.70;;;24.50;60.70;;;;;;4071683;28;20964;-48
2022/01/08 08:48:26;;;;;;;8.55;4.00;;;24.60;61.00;;;;;;4083350;28;20049;-46
2022/01/08 08:50:28;;;;;;;8.00;5.00;;;24.60;61.20;;;;;;4077238;28;20042;-47
2022/01/08 08:52:31;;;;;;;9.68;4.53;;;24.70;61.40;;;;;;4072437;28;20331;-45
2022/01/08 08:54:33;;;;;;;10.93;4.30;;;24.80;62.10;;;;;;4081076;28;20057;-50
2022/01/08 08:56:35;;;;;;;11.37;4.20;;;24.80;62.20;;;;;;4078872;28;20042;-48
2022/01/08 08:58:37;;;;;;;8.18;3.53;;;24.90;62.70;;;;;;4074693;28;20527;-48
2022/01/08 09:00:39;;;;;;;9.52;3.90;;;24.90;62.80;;;;;;4071130;28;20568;-46
2022/01/08 09:02:42;;;;;;;8.02;4.05;;;25.00;62.90;;;;;;4072180;28;20197;-47
2022/01/08 09:04:44;;;;;;;9.52;4.65;;;25.00;63.00;;;;;;4072218;28;20112;-47
2022/01/08 09:06:46;;;;;;;8.68;4.30;;;25.10;63.10;;;;;;4073025;28;20706;-50
2022/01/08 09:08:49;;;;;;;9.50;3.60;;;25.10;63.20;;;;;;4082363;28;20039;-46
2022/01/08 09:10:51;;;;;;;8.27;4.20;;;25.20;64.10;;;;;;4078765;28;21049;-48
2022/01/08 09:12:54;;;;;;;9.55;4.55;;;25.20;63.50;;;;;;4074520;28;20038;-48
2022/01/08 09:14:57;;;;;;;7.43;3.72;;;25.30;64.30;;;;;;4079231;28;20046;-50
2022/01/08 09:17:03;;;;;;;8.90;4.03;;;25.30;63.70;;;;;;4082763;28;20417;-47
2022/01/08 09:19:06;;;;;;;8.63;3.70;;;25.30;63.90;;;;;;4077371;28;20054;-45
2022/01/08 09:21:09;;;;;;;9.15;4.05;;;25.40;64.00;;;;;;4072861;28;20061;-51
2022/01/08 09:23:11;;;;;;;9.95;4.03;;;25.40;64.30;;;;;;4077577;28;20034;-47
2022/01/08 09:25:14;;;;;;;7.75;4.20;;;25.40;64.30;;;;;;4082832;28;20038;-45
2022/01/08 09:27:16;;;;;;;7.80;3.93;;;25.40;64.40;;;;;;4073279;28;20129;-46
2022/01/08 09:29:18;;;;;;;11.80;4.22;;;25.50;64.50;;;;;;4074931;28;20296;-44
2022/01/08 09:31:20;;;;;;;8.20;3.42;;;25.50;64.40;;;;;;4084183;28;20675;-48
2022/01/08 09:33:23;;;;;;;7.47;3.88;;;25.60;64.50;;;;;;4075740;28;20135;-45
2022/01/08 09:35:26;;;;;;;;;;;25.60;64.70;;;;;;4071717;28;20035;-48
2022/01/08 09:37:28;;;;;;;6.90;3.53;;;25.60;64.60;;;;;;4079168;28;20011;-46
2022/01/08 09:39:30;;;;;;;8.98;4.03;;;25.70;64.90;;;;;;4078641;28;21679;-46
2022/01/08 09:41:32;;;;;;;11.77;3.87;;;25.70;65.00;;;;;;4072563;28;20154;-48
2022/01/08 09:43:36;;;;;;;10.98;3.78;;;25.70;65.10;;;;;;4071713;28;20035;-46
2022/01/08 09:45:38;;;;;;;7.75;3.30;;;25.70;65.10;;;;;;4084390;28;20042;-45
2022/01/08 09:47:41;;;;;;;6.63;3.42;;;25.80;65.00;;;;;;4072983;28;20874;-49
2022/01/08 09:49:43;;;;;;;7.72;3.30;;;25.80;65.10;;;;;;4074744;28;20046;-46
2022/01/08 09:51:45;;;;;;;6.57;3.53;;;25.80;65.00;;;;;;4079531;28;20073;-48
2022/01/08 09:53:47;;;;;;;5.93;3.22;;;25.90;65.10;;;;;;4077914;28;21951;-47
2022/01/08 09:55:50;;;;;;;10.65;3.40;;;25.90;65.00;;;;;;4073105;28;20157;-49
2022/01/08 09:57:52;;;;;;;7.87;2.83;;;25.90;65.20;;;;;;4076726;28;20061;-46
2022/01/08 09:59:54;;;;;;;6.70;2.53;;;26.00;66.20;;;;;;4083635;28;20298;-46
2022/01/08 10:02:14;;;;;;;10.63;3.03;;;26.00;65.10;;;;;;4176295;27;21016;-44
2022/01/08 10:04:24;;;;;;;14.10;3.30;;;26.00;65.80;;;;;;4178066;28;21577;-47
2022/01/08 10:06:29;;;;;;;11.77;3.33;;;26.10;65.70;;;;;;4169903;28;20129;-48
2022/01/08 10:08:33;;;;;;;6.15;3.00;;;26.10;65.80;;;;;;4168158;28;20135;-46
2022/01/08 10:10:35;;;;;;;7.78;3.33;;;26.10;65.70;;;;;;4167366;28;20028;-47
2022/01/08 10:12:56;;;;;;;7.38;2.60;;;26.10;65.60;;;;;;4179095;28;20039;-44
2022/01/08 10:17:44;;;;;;;5.90;2.58;;;26.10;65.40;;;;;;4169468;28;20120;-48
2022/01/08 10:19:46;;;;;;;7.22;3.13;;;26.20;65.50;;;;;;4177786;28;20042;-43
2022/01/08 10:21:48;;;;;;;9.48;2.85;;;26.20;66.10;;;;;;4170893;28;20047;-44
2022/01/08 10:24:03;;;;;;;6.43;2.73;;;26.20;65.50;;;;;;4166251;28;20048;-46
2022/01/08 10:26:13;;;;;;;6.15;2.80;;;26.30;65.60;;;;;;4168085;28;20036;-45
2022/01/08 10:28:15;;;;;;;7.18;3.00;;;26.30;65.60;;;;;;4165872;28;20573;-47
2022/01/08 10:30:27;;;;;;;8.18;3.05;;;26.30;65.60;;;;;;4176169;28;20040;-49
2022/01/08 10:32:29;;;;;;;8.18;2.60;;;26.40;65.60;;;;;;4172578;28;20035;-51
2022/01/08 10:34:31;;;;;;;7.50;2.90;;;26.40;65.50;;;;;;4173516;28;21618;-47
2022/01/08 10:36:37;;;;;;;7.55;3.08;;;26.40;65.50;;;;;;4166840;28;20625;-49
2022/01/08 10:38:40;;;;;;;5.10;2.50;;;26.40;65.50;;;;;;4169453;28;20063;-46
2022/01/08 10:40:42;;;;;;;7.32;2.78;;;26.50;65.60;;;;;;4177012;28;20086;-47
2022/01/08 10:42:44;;;;;;;13.33;3.20;;;26.50;65.70;;;;;;4169441;28;20603;-48
2022/01/08 10:44:49;;;;;;;7.15;2.83;;;26.50;65.60;;;;;;4165873;28;20051;-46
2022/01/08 10:47:05;;;;;;;10.10;2.47;;;26.50;65.60;;;;;;4171464;28;20039;-48
2022/01/08 10:49:07;;;;;;;5.05;2.55;;;26.50;65.60;;;;;;4167182;28;20058;-46
2022/01/08 10:51:19;;;;;;;5.95;2.45;;;26.50;65.40;;;;;;4176704;28;20384;-52
2022/01/08 10:53:21;;;;;;;4.63;2.55;;;26.50;65.50;;;;;;4173493;28;20046;-49
2022/01/08 10:55:33;;;;;;;6.75;2.50;;;26.60;65.70;;;;;;4170083;28;20064;-48
2022/01/08 10:57:45;;;;;;;8.15;2.67;;;26.60;65.70;;;;;;4167659;28;20040;-49
2022/01/08 10:59:56;;;;;;;5.65;2.63;;;26.60;65.60;;;;;;4169472;28;20036;-47
2022/01/08 11:02:00;;;;;;;8.02;2.45;;;26.60;65.50;;;;;;4168172;28;20055;-47
2022/01/08 11:04:03;;;;;;;5.75;2.70;;;26.60;65.50;;;;;;4168038;28;20070;-45
2022/01/08 11:06:06;;;;;;;5.70;2.45;;;26.60;65.60;;;;;;4169641;28;20233;-49
2022/01/08 11:08:15;;;;;;;3.83;2.17;;;26.70;65.60;;;;;;4176883;28;20156;-45
2022/01/08 11:10:23;;;;;;;4.97;2.10;;;26.70;65.60;;;;;;4173728;28;20296;-48